LEGR/GRX METAR and TAF weather

Enter ICAO airport designator
Station Type Date Time Source
LEGR METAR 2019/11/18 04:00 UTC NOAA

LEGR 180400Z AUTO 23007KT 9999 -RA SCT044 BKN055 10/09 Q1009 RERA


Station Type Date Time Source
LEGR Decoded METAR 2019/11/18 04:00 UTC NOAA

Granada / Aeropuerto, Spain (LEGR) 37-11N 003-47W 570M
Nov 17, 2019 - 11:00 PM EST / 2019.11.18 0400 UTC
Wind: from the SW (230 degrees) at 8 MPH (7 KT):0
Visibility: greater than 7 mile(s):0
Sky conditions: mostly cloudy
Weather: light rain
Temperature: 50 F (10 C)
Dew Point: 48 F (9 C)
Relative Humidity: 93%
Pressure (altimeter): 29.80 in. Hg (1009 hPa)
ob: LEGR 180400Z AUTO 23007KT 9999 -RA SCT044 BKN055 10/09 Q1009 RERA
cycle: 4

Station Type Date Time Source
LEGR TAF 2019/11/18 03:27 UTC NOAA

TAF LEGR 180200Z 1803/1903 25006KT 9999 SCT020 SCT040 TX13/1815Z TN01/1903Z PROB40
TEMPO 1803/1804 3000 RA BKN010 PROB40
TEMPO 1812/1817 01010KT

Example: see airport list